Time;durP1;ratioP1;P1;durP2;ratioP2;P2;SDS_P1;SDS_P2;PMS_P1;PMS_P2;Temp;Humidity;BMP_temperature;BMP_pressure;BME280_temperature;BME280_humidity;BME280_pressure;Samples;Min_cycle;Max_cycle;Signal;HPM_P1;HPM_P2
2022/07/18 00:02:04;;;;;;;3.72;1.70;;;;;;;23.01;40.43;102156.06;5029161;28;96777;-70
2022/07/18 00:04:31;;;;;;;7.50;2.40;;;;;;;23.11;40.19;102170.66;5027507;27;101610;-70
2022/07/18 00:06:59;;;;;;;8.98;2.08;;;;;;;22.99;40.36;102160.69;5027269;27;101757;-70
2022/07/18 00:09:25;;;;;;;8.57;1.83;;;;;;;22.94;40.22;102150.22;5027002;27;97163;-71
2022/07/18 00:11:53;;;;;;;6.75;2.00;;;;;;;23.04;40.07;102150.47;5029066;27;97384;-70
2022/07/18 00:14:20;;;;;;;5.72;1.95;;;;;;;22.94;40.05;102144.81;5024820;27;98877;-71
2022/07/18 00:16:46;;;;;;;5.60;2.42;;;;;;;23.16;40.08;102141.59;5025742;27;98924;-70
2022/07/18 00:19:13;;;;;;;3.28;1.40;;;;;;;23.14;40.19;102146.22;5029749;27;98389;-70
2022/07/18 00:21:39;;;;;;;4.47;1.70;;;;;;;23.21;39.53;102134.06;5029490;27;96801;-70
2022/07/18 00:24:07;;;;;;;6.22;2.00;;;;;;;23.15;39.57;102139.84;5029169;27;99097;-70
2022/07/18 00:26:34;;;;;;;4.78;1.63;;;;;;;23.04;39.98;102145.94;5030175;27;98034;-70
2022/07/18 00:29:00;;;;;;;3.70;1.80;;;;;;;23.15;39.90;102145.25;5033566;27;96771;-70
2022/07/18 00:31:27;;;;;;;7.07;2.33;;;;;;;23.19;40.26;102152.16;5028321;27;98749;-73
2022/07/18 00:33:53;;;;;;;5.68;1.40;;;;;;;23.14;40.38;102157.00;5020050;27;98965;-71
2022/07/18 00:36:19;;;;;;;4.40;1.80;;;;;;;23.39;39.22;102154.38;5029800;27;101246;-71
2022/07/18 00:38:48;;;;;;;6.32;1.83;;;;;;;23.20;39.32;102158.41;5024386;27;98368;-71
2022/07/18 00:41:17;;;;;;;4.68;1.60;;;;;;;23.42;37.13;102158.72;5028803;27;97183;-70
2022/07/18 00:43:44;;;;;;;3.30;1.27;;;;;;;23.16;37.21;102163.16;5023708;27;98984;-70
2022/07/18 00:46:11;;;;;;;4.03;1.50;;;;;;;23.01;37.37;102169.53;5029725;27;99513;-70
2022/07/18 00:48:37;;;;;;;9.70;2.13;;;;;;;23.17;37.90;102169.41;5027419;28;97135;-70
2022/07/18 00:51:04;;;;;;;6.93;1.52;;;;;;;22.84;38.78;102162.53;5026543;27;97214;-70
2022/07/18 00:53:30;;;;;;;6.00;1.10;;;;;;;22.97;37.65;102162.63;5025823;27;100673;-70
2022/07/18 00:55:57;;;;;;;7.32;1.80;;;;;;;22.84;39.33;102164.41;5024929;27;98822;-70
2022/07/18 00:58:25;;;;;;;5.38;2.05;;;;;;;22.91;39.64;102160.31;5029106;27;97930;-70
2022/07/18 01:03:36;;;;;;;4.88;2.13;;;;;;;22.90;39.70;102158.59;5023539;28;98402;-70
2022/07/18 01:06:02;;;;;;;4.55;1.92;;;;;;;22.86;38.94;102157.94;5032719;27;98485;-70
2022/07/18 01:08:29;;;;;;;9.25;1.67;;;;;;;22.97;39.51;102151.84;5026125;27;96728;-70
2022/07/18 01:10:56;;;;;;;3.70;1.60;;;;;;;23.02;39.82;102161.38;5028050;27;97147;-70
2022/07/18 01:13:22;;;;;;;4.50;1.60;;;;;;;23.07;39.55;102155.66;5023529;27;98998;-71
2022/07/18 01:15:50;;;;;;;4.20;1.50;;;;;;;22.84;40.11;102162.53;5026785;27;98418;-71
2022/07/18 01:18:17;;;;;;;8.60;1.75;;;;;;;22.86;40.19;102157.06;5025872;27;96897;-71
2022/07/18 01:20:44;;;;;;;4.63;1.58;;;;;;;22.73;40.95;102153.41;5022453;27;97070;-71
2022/07/18 01:23:11;;;;;;;4.72;1.70;;;;;;;22.75;40.96;102160.47;5026079;27;97353;-71
2022/07/18 01:25:37;;;;;;;6.90;1.95;;;;;;;22.66;41.08;102155.63;5027888;28;98339;-71
2022/07/18 01:28:04;;;;;;;7.68;1.52;;;;;;;22.54;41.56;102157.25;5029754;27;97104;-70
2022/07/18 01:30:31;;;;;;;6.43;1.75;;;;;;;22.42;41.69;102152.66;5020405;28;96872;-70
2022/07/18 01:32:59;;;;;;;5.88;1.95;;;;;;;22.41;41.79;102152.75;5027006;27;101393;-73
2022/07/18 01:35:28;;;;;;;6.50;1.58;;;;;;;22.45;41.63;102157.84;5025658;27;97931;-69
2022/07/18 01:37:58;;;;;;;5.63;1.67;;;;;;;22.33;42.42;102155.91;5029257;27;96767;-71
2022/07/18 01:40:25;;;;;;;6.10;1.73;;;;;;;22.32;42.58;102154.19;5024639;27;98906;-71
2022/07/18 01:42:52;;;;;;;3.40;1.40;;;;;;;22.13;43.12;102150.91;5029147;27;99059;-71
2022/07/18 01:45:19;;;;;;;2.58;1.40;;;;;;;22.05;43.19;102147.84;5021904;27;98811;-70
2022/07/18 01:47:46;;;;;;;5.50;1.58;;;;;;;22.01;43.42;102154.34;5028261;27;98854;-70
2022/07/18 01:50:14;;;;;;;4.97;1.50;;;;;;;21.91;43.77;102151.34;5027393;27;97997;-70
2022/07/18 01:52:41;;;;;;;5.90;1.67;;;;;;;21.85;43.66;102154.41;5027835;27;101821;-70
2022/07/18 01:55:10;;;;;;;5.20;1.50;;;;;;;21.94;43.47;102155.66;5021121;27;99271;-70
2022/07/18 01:57:37;;;;;;;14.60;2.13;;;;;;;21.80;43.80;102154.66;5025981;27;96897;-70
2022/07/18 02:00:05;;;;;;;6.28;2.33;;;;;;;22.00;43.61;102160.69;5022257;28;97227;-70
2022/07/18 02:02:32;;;;;;;3.53;1.30;;;;;;;21.88;43.98;102162.28;5028311;27;99224;-70
2022/07/18 02:05:01;;;;;;;5.60;2.05;;;;;;;21.83;43.93;102162.56;5022418;28;99662;-69
2022/07/18 02:07:28;;;;;;;3.95;1.45;;;;;;;22.10;43.24;102161.88;5023215;27;98357;-69
2022/07/18 02:09:56;;;;;;;6.32;1.65;;;;;;;22.26;42.97;102160.81;5026432;28;96797;-69
2022/07/18 02:12:24;;;;;;;4.28;1.48;;;;;;;21.93;43.86;102156.59;5024929;27;98143;-70
2022/07/18 02:14:50;;;;;;;6.50;1.50;;;;;;;21.94;43.64;102150.25;5023946;27;98926;-69
2022/07/18 02:17:17;;;;;;;8.63;1.98;;;;;;;21.77;43.59;102149.47;5024766;27;96797;-70
2022/07/18 02:19:43;;;;;;;4.20;1.98;;;;;;;21.66;43.79;102146.53;5025343;28;96877;-69
2022/07/18 02:22:10;;;;;;;7.43;2.05;;;;;;;21.33;44.73;102154.78;5022746;27;99159;-71
2022/07/18 02:24:36;;;;;;;6.30;1.52;;;;;;;21.37;44.28;102155.50;5026661;27;98930;-71
2022/07/18 02:27:03;;;;;;;7.03;1.90;;;;;;;21.47;44.09;102144.09;5024126;27;98723;-70
2022/07/18 02:29:31;;;;;;;6.43;1.63;;;;;;;21.16;44.47;102140.59;5024541;27;96830;-71
2022/07/18 02:31:59;;;;;;;7.28;1.67;;;;;;;21.36;44.47;102153.75;5027813;27;98437;-71
2022/07/18 02:34:25;;;;;;;4.68;1.55;;;;;;;21.10;45.82;102149.84;5025903;27;98856;-70
2022/07/18 02:36:52;;;;;;;6.85;2.00;;;;;;;21.11;45.82;102137.28;5029224;27;97018;-70
2022/07/18 02:39:19;;;;;;;6.38;1.63;;;;;;;21.03;46.11;102146.66;5024350;28;97274;-69
2022/07/18 02:41:46;;;;;;;6.72;1.73;;;;;;;21.08;46.03;102149.06;5020556;28;98988;-69
2022/07/18 02:44:13;;;;;;;5.63;2.22;;;;;;;21.11;46.08;102134.59;5023902;27;98924;-70
2022/07/18 02:46:41;;;;;;;7.88;1.92;;;;;;;21.07;46.04;102144.63;5020850;27;96736;-70
2022/07/18 02:49:07;;;;;;;4.30;1.50;;;;;;;20.93;46.81;102147.28;5022407;28;96919;-70
2022/07/18 02:51:34;;;;;;;4.13;1.60;;;;;;;20.93;46.91;102156.19;5021480;27;98989;-70
2022/07/18 02:54:00;;;;;;;10.63;2.58;;;;;;;20.85;46.91;102150.38;5022246;27;98885;-71
2022/07/18 02:56:26;;;;;;;5.53;1.95;;;;;;;20.86;46.72;102145.88;5023930;27;96891;-70
2022/07/18 02:58:53;;;;;;;3.45;1.80;;;;;;;20.81;46.96;102145.25;5028437;27;96866;-70
2022/07/18 03:01:19;;;;;;;6.47;2.03;;;;;;;20.62;47.14;102148.09;5023746;27;99120;-71
2022/07/18 03:03:47;;;;;;;7.55;1.80;;;;;;;20.86;46.81;102153.94;5021726;28;99054;-70
2022/07/18 03:06:13;;;;;;;4.90;1.60;;;;;;;20.62;47.37;102151.66;5027355;27;96852;-71
2022/07/18 03:08:40;;;;;;;8.68;1.67;;;;;;;20.87;46.70;102150.31;5027346;28;97108;-70
2022/07/18 03:11:06;;;;;;;4.47;1.35;;;;;;;20.67;47.27;102143.38;5028151;27;98889;-71
2022/07/18 03:13:32;;;;;;;5.50;2.00;;;;;;;20.89;46.87;102143.88;5027499;27;97549;-70
2022/07/18 03:15:59;;;;;;;5.38;1.83;;;;;;;20.92;46.77;102145.53;5018998;27;97144;-70
2022/07/18 03:18:25;;;;;;;4.03;1.73;;;;;;;20.65;47.46;102139.88;5026473;27;96879;-70
2022/07/18 03:20:54;;;;;;;6.20;2.20;;;;;;;20.76;47.53;102144.66;5023588;27;98948;-70
2022/07/18 03:23:20;;;;;;;4.93;2.22;;;;;;;20.58;47.61;102135.81;5025604;28;99194;-69
2022/07/18 03:25:47;;;;;;;4.43;1.80;;;;;;;20.61;47.80;102143.72;5022846;27;97576;-70
2022/07/18 03:28:13;;;;;;;4.38;1.60;;;;;;;20.76;47.66;102148.19;5020883;27;97395;-70
2022/07/18 03:30:39;;;;;;;5.18;1.98;;;;;;;20.67;47.48;102143.38;5021942;27;99025;-70
2022/07/18 03:33:06;;;;;;;5.22;1.92;;;;;;;20.67;47.46;102138.00;5025323;27;98967;-70
2022/07/18 03:35:32;;;;;;;4.85;2.20;;;;;;;20.58;47.67;102139.34;5029699;27;96933;-71
2022/07/18 03:38:00;;;;;;;9.55;2.58;;;;;;;20.78;47.12;102137.38;5026783;27;97408;-70
2022/07/18 03:40:27;;;;;;;7.03;1.83;;;;;;;20.67;47.84;102148.75;5026120;27;98941;-71
2022/07/18 03:42:53;;;;;;;4.70;2.03;;;;;;;20.84;47.42;102143.28;5030648;27;98984;-71
2022/07/18 03:45:20;;;;;;;5.53;2.00;;;;;;;20.80;47.34;102132.78;5032755;27;96880;-70
2022/07/18 03:47:46;;;;;;;7.38;2.10;;;;;;;20.75;47.44;102134.84;5025119;27;96789;-70
2022/07/18 03:50:12;;;;;;;7.50;1.92;;;;;;;20.63;47.77;102150.72;5025854;27;99525;-70
2022/07/18 03:52:39;;;;;;;7.78;2.42;;;;;;;20.75;47.35;102151.84;5031635;27;99173;-70
2022/07/18 03:55:08;;;;;;;5.13;2.08;;;;;;;20.66;47.52;102136.25;5029401;27;97338;-71
2022/07/18 03:57:34;;;;;;;6.85;2.15;;;;;;;20.91;47.29;102150.03;5025126;27;97336;-70
2022/07/18 04:00:01;;;;;;;6.05;2.08;;;;;;;20.76;48.05;102150.03;5028480;27;101619;-71
2022/07/18 04:02:27;;;;;;;6.35;1.98;;;;;;;20.86;48.10;102154.81;5029626;27;97895;-70
2022/07/18 04:04:54;;;;;;;6.38;2.00;;;;;;;20.80;48.36;102152.47;5025322;27;97463;-70
2022/07/18 04:07:20;;;;;;;4.65;2.03;;;;;;;20.97;47.74;102155.06;5026597;27;96974;-70
2022/07/18 04:09:46;;;;;;;7.30;2.35;;;;;;;21.05;47.68;102149.25;5022356;27;97997;-70
2022/07/18 04:12:14;;;;;;;7.88;2.20;;;;;;;20.96;48.16;102152.47;5025432;27;99031;-70
2022/07/18 04:14:41;;;;;;;8.57;2.20;;;;;;;21.09;47.88;102146.28;5012139;27;98027;-70
2022/07/18 04:17:07;;;;;;;5.43;2.05;;;;;;;21.08;48.03;102144.56;5025367;27;96990;-69
2022/07/18 04:19:34;;;;;;;8.98;2.20;;;;;;;21.21;47.86;102149.25;5029195;27;99394;-70
2022/07/18 04:22:00;;;;;;;5.32;2.05;;;;;;;21.60;46.70;102136.16;5029142;27;99167;-70
2022/07/18 04:24:27;;;;;;;8.45;2.05;;;;;;;21.65;46.80;102134.09;5020871;27;96782;-70
2022/07/18 04:26:53;;;;;;;4.97;2.30;;;;;;;21.48;46.54;102136.88;5020760;27;97327;-70
2022/07/18 04:29:21;;;;;;;5.13;1.88;;;;;;;21.51;46.45;102130.47;5025892;27;98946;-70
2022/07/18 04:31:47;;;;;;;8.07;2.63;;;;;;;21.72;45.98;102129.19;5027579;27;97443;-70
2022/07/18 04:34:14;;;;;;;6.57;2.25;;;;;;;21.75;46.20;102132.56;5030518;27;97277;-70
2022/07/18 04:36:40;;;;;;;9.63;2.20;;;;;;;21.91;45.98;102135.19;5020843;27;96893;-71
2022/07/18 04:39:07;;;;;;;6.65;2.70;;;;;;;21.94;45.54;102145.75;5024806;27;98934;-70
2022/07/18 04:41:40;;;;;;;6.47;1.90;;;;;;;22.03;45.78;102141.69;5024389;27;98731;-70
2022/07/18 04:44:06;;;;;;;6.07;1.98;;;;;;;22.24;43.91;102148.44;5027335;27;96717;-70
2022/07/18 04:46:34;;;;;;;7.38;2.00;;;;;;;22.43;42.78;102138.25;5022740;27;98813;-70
2022/07/18 04:49:00;;;;;;;15.18;2.22;;;;;;;22.64;42.23;102141.41;5026034;27;99104;-70
2022/07/18 04:51:27;;;;;;;10.20;2.08;;;;;;;22.68;42.58;102142.91;5024348;27;99336;-70
2022/07/18 04:53:54;;;;;;;4.60;2.00;;;;;;;22.64;42.56;102136.84;5021934;27;97345;-70
2022/07/18 04:56:20;;;;;;;4.72;2.10;;;;;;;22.64;42.30;102134.16;5025918;27;97535;-70
2022/07/18 04:58:47;;;;;;;8.05;2.33;;;;;;;22.90;41.90;102131.66;5026599;28;99047;-70
2022/07/18 05:01:13;;;;;;;11.70;3.95;;;;;;;23.18;41.77;102131.53;5025206;27;98950;-70
2022/07/18 05:03:41;;;;;;;11.32;3.15;;;;;;;23.29;41.56;102129.00;5024798;27;97267;-71
2022/07/18 05:06:07;;;;;;;11.13;1.98;;;;;;;23.34;40.57;102120.59;5028569;27;97136;-71
2022/07/18 05:08:34;;;;;;;10.32;1.90;;;;;;;23.62;40.08;102125.03;5026658;27;102185;-70
2022/07/18 05:11:00;;;;;;;9.70;3.92;;;;;;;23.82;39.47;102127.22;5023055;27;101159;-70
2022/07/18 05:13:27;;;;;;;11.57;2.85;;;;;;;24.21;38.38;102129.84;5029651;27;96893;-70
2022/07/18 05:15:53;;;;;;;10.27;2.15;;;;;;;24.79;37.56;102135.59;5017581;27;98989;-70
2022/07/18 05:18:19;;;;;;;5.90;2.15;;;;;;;25.21;35.78;102127.00;5023504;28;99418;-70
2022/07/18 05:20:48;;;;;;;6.55;2.00;;;;;;;25.04;36.04;102127.41;5020233;28;102090;-70
2022/07/18 05:23:14;;;;;;;7.60;2.25;;;;;;;25.56;35.27;102126.16;5023171;27;97396;-69
2022/07/18 05:25:41;;;;;;;5.60;1.98;;;;;;;25.34;35.23;102132.34;5022129;27;97816;-70
2022/07/18 05:28:08;;;;;;;6.57;2.10;;;;;;;25.01;36.05;102139.31;5027080;27;97728;-70
2022/07/18 05:30:34;;;;;;;7.43;1.95;;;;;;;25.29;35.46;102124.59;5020912;27;99700;-71
2022/07/18 05:33:01;;;;;;;8.13;2.10;;;;;;;25.04;36.21;102130.13;5024148;28;97236;-70
2022/07/18 05:35:27;;;;;;;6.97;2.38;;;;;;;24.44;36.97;102130.91;5026730;27;96824;-70
2022/07/18 05:37:55;;;;;;;12.05;2.50;;;;;;;24.93;36.01;102127.38;5024702;27;99185;-71
2022/07/18 05:40:21;;;;;;;5.97;2.08;;;;;;;24.71;36.38;102128.03;5021015;27;99078;-71
2022/07/18 05:42:49;;;;;;;7.65;2.00;;;;;;;24.85;36.71;102121.63;5028075;27;96845;-70
2022/07/18 05:45:16;;;;;;;11.73;2.28;;;;;;;25.16;36.44;102129.19;5025815;27;97442;-70
2022/07/18 05:47:42;;;;;;;9.18;2.63;;;;;;;24.97;36.07;102123.44;5023265;27;101036;-69
2022/07/18 05:50:09;;;;;;;10.25;2.47;;;;;;;24.95;36.39;102115.44;5030761;27;97840;-70
2022/07/18 05:52:37;;;;;;;4.68;1.83;;;;;;;25.00;36.64;102113.28;5027892;27;97236;-71
2022/07/18 05:55:07;;;;;;;5.28;2.22;;;;;;;24.72;36.95;102120.78;5022509;27;97016;-69
2022/07/18 05:57:33;;;;;;;3.33;2.10;;;;;;;25.18;36.25;102116.44;5020382;27;99422;-69
2022/07/18 06:00:00;;;;;;;6.45;1.88;;;;;;;25.43;35.52;102104.59;5017361;27;99156;-70
2022/07/18 06:02:26;;;;;;;8.15;2.47;;;;;;;25.70;34.67;102110.63;5026612;27;97073;-71
2022/07/18 06:04:53;;;;;;;5.78;2.05;;;;;;;25.84;34.86;102114.09;5023280;27;97043;-71
2022/07/18 06:07:29;;;;;;;5.53;1.90;;;;;;;25.70;35.47;102107.06;5024105;27;97837;-71
2022/07/18 06:09:55;;;;;;;6.68;2.10;;;;;;;25.84;34.78;102114.09;5025206;28;98273;-71
2022/07/18 06:12:23;;;;;;;6.18;2.10;;;;;;;25.76;34.55;102112.84;5024709;28;96657;-70
2022/07/18 06:14:50;;;;;;;7.97;1.95;;;;;;;25.99;34.33;102112.91;5023620;28;96810;-71
2022/07/18 06:17:16;;;;;;;7.10;2.42;;;;;;;26.02;34.24;102118.06;5026966;28;100373;-70
2022/07/18 06:19:43;;;;;;;6.95;2.00;;;;;;;26.13;33.49;102118.06;5024029;27;97182;-72
2022/07/18 06:22:10;;;;;;;9.00;2.20;;;;;;;26.59;33.39;102124.25;5025108;28;97295;-72
2022/07/18 06:24:36;;;;;;;4.35;1.67;;;;;;;26.54;32.90;102128.34;5023827;28;97206;-71
2022/07/18 06:27:03;;;;;;;7.55;2.05;;;;;;;25.99;33.08;102121.88;5025497;27;100868;-71
2022/07/18 06:29:32;;;;;;;3.60;1.38;;;;;;;26.35;33.10;102120.84;5024371;27;99289;-71
2022/07/18 06:31:58;;;;;;;4.68;1.77;;;;;;;26.91;32.33;102126.25;5027705;27;96720;-71
2022/07/18 06:34:25;;;;;;;5.05;1.80;;;;;;;27.06;31.92;102129.50;5022618;27;97086;-71
2022/07/18 06:36:51;;;;;;;4.28;2.00;;;;;;;27.06;32.12;102127.66;5022954;27;98913;-70
2022/07/18 06:39:18;;;;;;;3.13;1.48;;;;;;;26.92;32.08;102128.78;5028836;28;97534;-71
2022/07/18 06:41:45;;;;;;;5.22;1.88;;;;;;;27.21;31.94;102134.53;5023439;28;96850;-70
2022/07/18 06:44:12;;;;;;;9.68;3.53;;;;;;;27.65;31.76;102135.34;5023003;28;96786;-71
2022/07/18 06:46:40;;;;;;;4.90;1.90;;;;;;;27.30;31.53;102130.19;5022524;27;98955;-70
2022/07/18 06:49:06;;;;;;;6.38;1.60;;;;;;;27.26;31.48;102134.13;5029204;27;98262;-71
2022/07/18 06:51:32;;;;;;;3.40;1.55;;;;;;;27.43;31.39;102130.88;5020924;27;97102;-71
2022/07/18 06:54:02;;;;;;;3.85;1.48;;;;;;;28.02;30.41;102136.63;5028558;28;97109;-72
2022/07/18 06:56:28;;;;;;;5.60;1.35;;;;;;;27.85;30.00;102131.78;5019658;27;99191;-71
2022/07/18 06:58:55;;;;;;;6.28;1.08;;;;;;;28.04;30.09;102137.31;5024482;28;98921;-71
2022/07/18 07:01:22;;;;;;;4.65;2.22;;;;;;;28.65;28.97;102136.50;5022094;28;96802;-71
2022/07/18 07:03:50;;;;;;;6.13;2.60;;;;;;;28.50;29.49;102125.97;5023880;28;97220;-71
2022/07/18 07:06:16;;;;;;;5.50;1.40;;;;;;;28.50;29.88;102125.13;5021412;28;99301;-70
2022/07/18 07:08:43;;;;;;;6.68;2.40;;;;;;;28.73;29.48;102123.06;5027735;27;99390;-73
2022/07/18 07:11:10;;;;;;;5.03;2.05;;;;;;;28.89;29.28;102115.25;5035330;27;97126;-71
2022/07/18 07:13:36;;;;;;;5.05;1.13;;;;;;;28.68;28.41;102118.06;5033322;27;97463;-70
2022/07/18 07:16:04;;;;;;;4.43;1.42;;;;;;;28.32;28.79;102113.19;5029026;27;99443;-71
2022/07/18 07:18:31;;;;;;;12.60;1.63;;;;;;;28.48;28.75;102103.53;5031739;27;96963;-71
2022/07/18 07:20:59;;;;;;;7.85;1.80;;;;;;;28.43;29.06;102102.19;5023288;27;97184;-73
2022/07/18 07:23:26;;;;;;;7.13;1.85;;;;;;;28.45;28.78;102100.22;5034298;27;97137;-71
2022/07/18 07:25:52;;;;;;;3.55;1.40;;;;;;;28.65;28.22;102092.97;5018704;28;98095;-70
2022/07/18 07:28:19;;;;;;;3.65;1.40;;;;;;;28.54;28.03;102096.69;5032650;27;98668;-71
2022/07/18 07:30:45;;;;;;;2.85;1.00;;;;;;;28.28;27.75;102096.31;5024432;28;96943;-71
2022/07/18 07:33:12;;;;;;;1.45;0.82;;;;;;;28.22;26.88;102090.56;5026549;28;96996;-72
2022/07/18 07:35:38;;;;;;;5.28;1.60;;;;;;;27.74;27.95;102091.09;5027086;27;98963;-71
2022/07/18 07:38:06;;;;;;;2.83;1.10;;;;;;;28.12;27.96;102090.47;5026449;27;99778;-70
2022/07/18 07:40:32;;;;;;;2.45;1.15;;;;;;;28.43;28.02;102088.59;5032532;27;97031;-70
2022/07/18 07:43:06;;;;;;;6.93;1.40;;;;;;;28.43;27.63;102091.31;5027589;27;97423;-70
2022/07/18 07:45:32;;;;;;;2.83;1.50;;;;;;;28.50;27.89;102089.78;5026769;27;99268;-71
2022/07/18 07:47:59;;;;;;;3.28;1.00;;;;;;;28.58;27.60;102091.81;5029430;27;98213;-72
2022/07/18 07:50:26;;;;;;;5.22;1.10;;;;;;;28.76;27.53;102077.44;5029075;28;96735;-70
2022/07/18 07:52:54;;;;;;;1.95;1.20;;;;;;;28.71;27.31;102084.25;5033351;27;97227;-71
2022/07/18 07:55:22;;;;;;;10.07;7.13;;;;;;;28.99;26.78;102091.66;5027799;27;99496;-71
2022/07/18 07:57:49;;;;;;;3.80;1.30;;;;;;;29.19;26.94;102096.09;5025128;27;99004;-71
2022/07/18 08:00:16;;;;;;;5.72;1.02;;;;;;;29.26;26.61;102096.41;5027184;28;97292;-71
2022/07/18 08:02:57;;;;;;;23.73;2.20;;;;;;;28.93;26.75;102097.66;5015576;27;96852;-71
2022/07/18 08:05:24;;;;;;;4.50;0.98;;;;;;;29.36;26.54;102100.00;5025974;27;100150;-71
2022/07/18 08:07:50;;;;;;;4.40;1.00;;;;;;;29.38;26.38;102097.13;5021511;27;98942;-72
2022/07/18 08:10:18;;;;;;;3.13;1.30;;;;;;;29.70;25.80;102101.25;5027341;27;96900;-72
2022/07/18 08:12:46;;;;;;;2.15;1.08;;;;;;;30.15;25.65;102103.31;5022347;27;97275;-70
2022/07/18 08:15:13;;;;;;;3.00;1.13;;;;;;;30.00;25.39;102099.34;5027732;27;98965;-70
2022/07/18 08:17:39;;;;;;;4.38;1.40;;;;;;;29.88;25.31;102095.03;5027649;27;99253;-71
2022/07/18 08:20:07;;;;;;;2.47;1.08;;;;;;;29.89;25.80;102096.75;5030421;27;96881;-72
2022/07/18 08:22:34;;;;;;;3.58;1.40;;;;;;;29.56;24.77;102095.38;5027290;27;96840;-70
2022/07/18 08:25:01;;;;;;;3.15;1.77;;;;;;;29.43;24.48;102089.38;5030058;27;98921;-70
2022/07/18 08:27:27;;;;;;;3.50;1.55;;;;;;;29.64;24.58;102090.09;5028320;27;99156;-70
2022/07/18 08:29:55;;;;;;;5.13;1.90;;;;;;;29.98;24.68;102087.75;5034477;27;97400;-71
2022/07/18 08:32:22;;;;;;;5.20;1.77;;;;;;;29.51;25.69;102084.09;5032873;27;96919;-72
2022/07/18 08:34:49;;;;;;;5.68;2.30;;;;;;;29.60;25.42;102086.78;5033146;27;99018;-71
2022/07/18 08:37:15;;;;;;;6.95;3.63;;;;;;;29.35;25.51;102090.09;5026692;27;96920;-71
2022/07/18 08:39:42;;;;;;;5.78;2.35;;;;;;;28.75;25.46;102099.34;5026158;27;96836;-70
2022/07/18 08:42:09;;;;;;;4.97;2.38;;;;;;;28.61;26.67;102103.28;5026619;27;96939;-70
2022/07/18 08:44:40;;;;;;;4.88;2.42;;;;;;;28.85;26.73;102101.06;5023299;27;97909;-71
2022/07/18 08:47:09;;;;;;;6.53;1.83;;;;;;;28.86;26.67;102091.06;5019001;28;98800;-71
2022/07/18 08:49:36;;;;;;;4.53;1.88;;;;;;;29.04;26.58;102089.34;5026883;28;96794;-71
2022/07/18 08:52:03;;;;;;;4.22;1.88;;;;;;;29.11;26.44;102086.91;5025619;27;97075;-71
2022/07/18 08:54:29;;;;;;;2.78;1.60;;;;;;;29.26;26.30;102089.09;5024132;27;98247;-71
2022/07/18 08:56:55;;;;;;;2.90;1.65;;;;;;;29.28;26.04;102091.66;5021052;27;99348;-71
2022/07/18 08:59:22;;;;;;;2.97;1.67;;;;;;;29.32;26.30;102093.09;5026770;27;96773;-72
2022/07/18 09:01:48;;;;;;;5.97;1.73;;;;;;;29.55;25.80;102089.09;5022438;27;96801;-71
2022/07/18 09:04:34;;;;;;;3.25;1.90;;;;;;;29.61;25.71;102085.78;5025538;28;98896;-71
2022/07/18 09:07:01;;;;;;;6.70;1.60;;;;;;;29.62;25.54;102086.63;5025831;27;99046;-71
2022/07/18 09:09:27;;;;;;;5.22;1.75;;;;;;;29.86;25.52;102080.72;5026318;27;96988;-72
2022/07/18 09:11:55;;;;;;;4.60;1.92;;;;;;;29.96;25.10;102082.44;5031658;27;96845;-71
2022/07/18 09:14:34;;;;;;;4.72;1.70;;;;;;;29.61;25.57;102082.19;5032014;27;99281;-70
2022/07/18 09:17:04;;;;;;;7.38;1.60;;;;;;;29.41;25.55;102084.06;5032115;27;98078;-71
2022/07/18 09:19:30;;;;;;;3.78;1.45;;;;;;;29.46;25.91;102073.63;5033141;27;96813;-72
2022/07/18 09:22:20;;;;;;;6.43;2.47;;;;;;;29.86;24.73;102076.13;5024788;27;96777;-71
2022/07/18 09:24:56;;;;;;;2.38;1.58;;;;;;;30.15;24.74;102070.59;5021810;27;99149;-71
2022/07/18 09:27:24;;;;;;;9.00;1.95;;;;;;;29.91;25.20;102083.84;5021162;27;98945;-72
2022/07/18 09:30:08;;;;;;;5.15;2.05;;;;;;;30.09;24.74;102082.97;5023469;27;97191;-70
2022/07/18 09:32:35;;;;;;;5.32;2.17;;;;;;;29.71;24.38;102077.59;5020592;28;97104;-71
2022/07/18 09:35:05;;;;;;;2.42;2.20;;;;;;;29.85;24.60;102087.19;5023577;27;99041;-71
2022/07/18 09:37:33;;;;;;;6.07;2.10;;;;;;;29.68;24.62;102078.75;5024805;27;98763;-72
2022/07/18 09:40:16;;;;;;;2.60;2.25;;;;;;;30.19;23.76;102077.50;5020573;27;96806;-71
2022/07/18 09:42:42;;;;;;;4.88;2.50;;;;;;;30.54;23.81;102071.28;5022291;28;97255;-71
2022/07/18 09:45:09;;;;;;;7.45;2.78;;;;;;;30.64;23.37;102066.66;5025928;27;98369;-71
2022/07/18 09:47:50;;;;;;;4.25;2.58;;;;;;;30.69;23.74;102074.38;5024100;27;98978;-70
2022/07/18 09:50:22;;;;;;;6.97;2.50;;;;;;;30.73;23.92;102073.03;5023153;27;98215;-73
2022/07/18 09:53:09;;;;;;;4.07;2.50;;;;;;;30.49;23.63;102069.03;5029058;27;97095;-71
2022/07/18 09:55:41;;;;;;;5.03;2.60;;;;;;;30.10;23.96;102067.47;5031049;28;99007;-71
2022/07/18 09:58:08;;;;;;;5.45;2.38;;;;;;;29.78;24.70;102069.69;5023264;28;99121;-72
2022/07/18 10:00:39;;;;;;;3.60;2.50;;;;;;;29.42;24.93;102066.75;5032226;28;97189;-72
2022/07/18 10:03:08;;;;;;;3.72;2.60;;;;;;;29.80;24.17;102068.53;5024506;28;96904;-73
2022/07/18 10:05:36;;;;;;;5.78;2.67;;;;;;;30.10;23.91;102071.06;5025554;28;100731;-71
2022/07/18 10:08:07;;;;;;;5.30;2.70;;;;;;;30.55;23.93;102066.69;5017830;28;101760;-70
2022/07/18 10:10:35;;;;;;;3.78;2.80;;;;;;;30.98;22.80;102069.59;5024560;28;96834;-71
2022/07/18 10:13:03;;;;;;;5.07;2.40;;;;;;;31.02;23.10;102070.13;5026486;28;96842;-71
2022/07/18 10:15:31;;;;;;;5.43;2.42;;;;;;;31.16;23.24;102066.88;5026083;27;99029;-70
2022/07/18 10:17:58;;;;;;;7.00;2.22;;;;;;;31.31;23.10;102059.81;5021883;27;99137;-72
2022/07/18 10:20:28;;;;;;;4.65;2.20;;;;;;;31.56;22.04;102063.63;5027566;27;96790;-71
2022/07/18 10:22:57;;;;;;;4.28;2.40;;;;;;;31.63;21.81;102059.28;5021480;27;97256;-71
2022/07/18 10:25:25;;;;;;;5.80;2.83;;;;;;;31.65;22.09;102063.53;5025373;28;102947;-71
2022/07/18 10:27:54;;;;;;;5.05;2.90;;;;;;;31.64;21.93;102055.50;5028133;27;97707;-71
2022/07/18 10:30:33;;;;;;;6.07;2.65;;;;;;;31.38;22.37;102055.44;5023517;28;96923;-73
2022/07/18 10:33:01;;;;;;;6.18;2.40;;;;;;;31.26;22.68;102060.31;5020348;28;97585;-71
2022/07/18 10:36:02;;;;;;;7.60;2.90;;;;;;;31.54;22.84;102049.25;5019854;28;97728;-72
2022/07/18 10:38:29;;;;;;;5.22;2.80;;;;;;;31.98;22.33;102067.34;5018895;27;98127;-71
2022/07/18 10:41:09;;;;;;;4.68;2.70;;;;;;;32.10;21.72;102058.88;5022553;28;97273;-72
2022/07/18 10:43:44;;;;;;;7.15;2.83;;;;;;;32.01;21.75;102063.44;5026967;28;97559;-71
2022/07/18 10:46:13;;;;;;;4.60;2.53;;;;;;;31.52;21.79;102057.59;5020866;27;98949;-72
2022/07/18 10:49:06;;;;;;;6.78;2.58;;;;;;;31.20;22.08;102052.75;5021098;27;98858;-71
2022/07/18 10:51:35;;;;;;;8.02;2.75;;;;;;;31.50;22.34;102056.06;5017684;28;96866;-72
2022/07/18 10:54:12;;;;;;;6.50;2.95;;;;;;;31.30;22.67;102049.94;5020622;28;97793;-72
2022/07/18 10:57:09;;;;;;;8.35;2.67;;;;;;;31.63;22.20;102043.75;5019131;28;98552;-72
2022/07/18 10:59:37;;;;;;;6.05;2.90;;;;;;;31.86;21.74;102048.66;5026938;27;98724;-71
2022/07/18 11:02:08;;;;;;;5.97;2.95;;;;;;;31.67;22.34;102045.13;5027130;27;96719;-71
2022/07/18 11:04:40;;;;;;;4.65;3.00;;;;;;;31.80;21.91;102044.69;5022086;27;96840;-71
2022/07/18 11:07:13;;;;;;;8.32;3.30;;;;;;;31.64;22.38;102039.09;5023102;27;99002;-72
2022/07/18 11:09:45;;;;;;;6.25;3.20;;;;;;;31.51;22.20;102035.91;5027052;27;98784;-72
2022/07/18 11:12:22;;;;;;;6.13;3.30;;;;;;;31.83;21.83;102038.06;5028607;27;97743;-71
2022/07/18 11:15:03;;;;;;;4.35;3.03;;;;;;;31.53;22.07;102031.16;5027385;27;97915;-71
2022/07/18 11:17:55;;;;;;;5.88;2.83;;;;;;;31.66;21.90;102029.75;5028089;27;98452;-72
2022/07/18 11:20:40;;;;;;;6.45;3.65;;;;;;;31.92;21.66;102032.47;5021739;27;97974;-71
2022/07/18 11:23:16;;;;;;;7.15;3.75;;;;;;;31.18;22.08;102032.06;5023741;27;96865;-72
2022/07/18 11:25:43;;;;;;;6.72;3.22;;;;;;;31.14;22.28;102031.53;5015727;27;97380;-71
2022/07/18 11:28:11;;;;;;;5.15;3.22;;;;;;;31.08;22.28;102031.31;5022580;27;98168;-71
2022/07/18 11:30:39;;;;;;;3.85;3.13;;;;;;;31.53;22.39;102022.97;5018915;27;98945;-71
2022/07/18 11:33:07;;;;;;;7.65;3.03;;;;;;;31.55;22.15;102023.66;5019316;27;97412;-71